Time;durP1;ratioP1;P1;durP2;ratioP2;P2;SDS_P1;SDS_P2;PMS_P1;PMS_P2;Temp;Humidity;BMP_temperature;BMP_pressure;BME280_temperature;BME280_humidity;BME280_pressure;Samples;Min_cycle;Max_cycle;Signal;HPM_P1;HPM_P2
2022/08/19 00:02:08;;;;;;;7.63;3.58;;;24.00;54.30;;;;;;5036059;28;20025;-68
2022/08/19 00:04:36;;;;;;;5.22;2.28;;;23.90;54.50;;;;;;5036286;28;20029;-68
2022/08/19 00:07:03;;;;;;;3.70;2.60;;;24.00;54.60;;;;;;5036427;28;20018;-69
2022/08/19 00:09:29;;;;;;;7.40;2.50;;;23.90;54.40;;;;;;5036229;28;20475;-68
2022/08/19 00:11:56;;;;;;;5.78;1.90;;;23.90;54.50;;;;;;5036277;28;20105;-68
2022/08/19 00:14:24;;;;;;;15.07;9.43;;;23.90;54.50;;;;;;5018527;28;20120;-68
2022/08/19 00:16:54;;;;;;;11.55;7.47;;;23.80;54.70;;;;;;5035532;28;20024;-69
2022/08/19 00:19:20;;;;;;;6.43;2.47;;;23.80;54.90;;;;;;5035130;28;20429;-69
2022/08/19 00:21:46;;;;;;;4.43;1.90;;;23.80;55.00;;;;;;5034896;28;20041;-69
2022/08/19 00:24:14;;;;;;;2.63;1.90;;;23.70;54.90;;;;;;5033732;28;20018;-68
2022/08/19 00:26:42;;;;;;;3.35;2.00;;;23.70;55.00;;;;;;5034895;28;20021;-69
2022/08/19 00:29:11;;;;;;;8.13;4.18;;;23.70;54.90;;;;;;5035734;28;20033;-67
2022/08/19 00:31:37;;;;;;;4.80;2.40;;;23.70;55.80;;;;;;5034882;28;20018;-68
2022/08/19 00:34:03;;;;;;;5.35;2.30;;;23.70;55.20;;;;;;5034908;28;20501;-67
2022/08/19 00:36:31;;;;;;;5.20;2.17;;;23.60;55.20;;;;;;5034865;28;20550;-68
2022/08/19 00:38:58;;;;;;;5.80;2.03;;;23.60;55.40;;;;;;5034813;28;20420;-69
2022/08/19 00:41:24;;;;;;;9.30;2.53;;;23.50;55.50;;;;;;5033720;28;20028;-68
2022/08/19 00:44:05;;;;;;;15.80;9.77;;;23.50;55.70;;;;;;5034589;28;20613;-69
2022/08/19 00:46:33;;;;;;;18.63;10.70;;;23.50;56.10;;;;;;5033227;28;20118;-68
2022/08/19 00:49:02;;;;;;;9.93;6.18;;;23.40;55.90;;;;;;5034556;28;20021;-69
2022/08/19 00:51:32;;;;;;;18.00;9.68;;;23.40;56.10;;;;;;5034505;28;20026;-68
2022/08/19 00:54:00;;;;;;;10.75;6.57;;;23.40;56.20;;;;;;5034529;28;20386;-69
2022/08/19 00:56:27;;;;;;;5.63;3.00;;;23.40;56.10;;;;;;5034823;28;20025;-68
2022/08/19 00:58:56;;;;;;;3.85;2.25;;;23.40;56.20;;;;;;5034445;28;20119;-69
2022/08/19 01:01:22;;;;;;;10.15;6.65;;;23.30;56.10;;;;;;5034314;28;20048;-67
2022/08/19 01:03:47;;;;;;;4.63;2.90;;;23.30;56.30;;;;;;5034305;28;20025;-69
2022/08/19 01:06:14;;;;;;;6.28;3.42;;;23.30;56.30;;;;;;5034095;28;20035;-69
2022/08/19 01:08:40;;;;;;;14.35;7.30;;;23.30;56.40;;;;;;5030191;28;20025;-69
2022/08/19 01:11:07;;;;;;;11.18;5.00;;;23.20;56.60;;;;;;5053792;28;20086;-69
2022/08/19 01:13:34;;;;;;;5.75;2.58;;;23.20;57.00;;;;;;5053852;28;20025;-68
2022/08/19 01:16:08;;;;;;;6.28;2.88;;;23.20;57.00;;;;;;5053767;28;20104;-69
2022/08/19 01:18:37;;;;;;;5.30;2.30;;;23.20;57.00;;;;;;5053810;28;20382;-71
2022/08/19 01:21:10;;;;;;;7.93;3.60;;;23.20;57.00;;;;;;5053517;28;20183;-69
2022/08/19 01:23:42;;;;;;;12.07;6.57;;;23.20;57.00;;;;;;5053653;28;20100;-68
2022/08/19 01:26:21;;;;;;;5.38;3.10;;;23.10;57.10;;;;;;5040524;28;20446;-69
2022/08/19 01:28:50;;;;;;;4.10;2.40;;;23.10;57.20;;;;;;5033597;28;20494;-69
2022/08/19 01:31:21;;;;;;;4.53;2.22;;;23.10;57.70;;;;;;5033502;28;20033;-69
2022/08/19 01:33:48;;;;;;;6.38;2.15;;;23.10;57.30;;;;;;5033574;28;20033;-68
2022/08/19 01:36:22;;;;;;;12.23;6.50;;;23.10;57.40;;;;;;5033544;28;20360;-70
2022/08/19 01:38:49;;;;;;;8.93;5.28;;;23.10;57.40;;;;;;5033465;28;20095;-67
2022/08/19 01:41:17;;;;;;;5.72;3.88;;;23.00;57.70;;;;;;5033464;28;20025;-69
2022/08/19 01:43:43;;;;;;;6.00;3.17;;;23.00;58.00;;;;;;5033340;28;20032;-70
2022/08/19 01:46:09;;;;;;;8.45;2.45;;;23.00;57.80;;;;;;5032002;28;20111;-69
2022/08/19 01:48:39;;;;;;;3.80;2.10;;;23.00;57.60;;;;;;5043769;28;20502;-69
2022/08/19 01:51:05;;;;;;;8.50;4.40;;;23.00;57.60;;;;;;5053074;28;20028;-67
2022/08/19 01:53:31;;;;;;;4.85;3.20;;;23.00;57.50;;;;;;5053026;28;20025;-67
2022/08/19 01:55:57;;;;;;;21.35;13.75;;;23.00;57.60;;;;;;5035056;28;20021;-68
2022/08/19 01:58:29;;;;;;;16.17;10.25;;;23.00;57.80;;;;;;5052718;28;20032;-68
2022/08/19 02:00:54;;;;;;;5.18;3.35;;;23.00;58.10;;;;;;5040132;28;20029;-69
2022/08/19 02:03:20;;;;;;;6.45;2.60;;;22.90;58.00;;;;;;5022136;28;20040;-69
2022/08/19 02:05:46;;;;;;;7.97;3.03;;;23.00;57.90;;;;;;5019383;28;20025;-68
2022/08/19 02:08:12;;;;;;;7.85;2.05;;;23.00;57.90;;;;;;5047915;28;20115;-68
2022/08/19 02:10:41;;;;;;;5.95;2.35;;;22.90;57.70;;;;;;5034129;28;20033;-67
2022/08/19 02:13:06;;;;;;;7.07;2.92;;;22.90;57.60;;;;;;5051594;28;20029;-68
2022/08/19 02:15:32;;;;;;;9.75;4.03;;;22.90;57.70;;;;;;5051794;28;20032;-68
2022/08/19 02:17:58;;;;;;;5.82;2.75;;;22.90;57.70;;;;;;5051750;28;20044;-70
2022/08/19 02:20:24;;;;;;;8.57;4.88;;;22.90;57.70;;;;;;5047287;28;20032;-68
2022/08/19 02:22:50;;;;;;;9.10;5.40;;;22.90;57.90;;;;;;5045776;28;20036;-70
2022/08/19 02:25:16;;;;;;;12.23;6.30;;;22.80;57.90;;;;;;5034390;28;20021;-68
2022/08/19 02:27:42;;;;;;;11.45;6.55;;;22.80;57.90;;;;;;5050448;28;20074;-70
2022/08/19 02:30:12;;;;;;;100.30;62.53;;;22.80;58.30;;;;;;5052304;28;20043;-70
2022/08/19 02:32:38;;;;;;;66.82;40.05;;;22.90;58.50;;;;;;5052804;28;20021;-70
2022/08/19 02:35:05;;;;;;;33.20;20.33;;;22.80;58.90;;;;;;5034646;28;20544;-67
2022/08/19 02:40:17;;;;;;;118.05;74.97;;;22.90;59.00;;;;;;5051993;28;20163;-70
2022/08/19 02:42:43;;;;;;;32.88;21.63;;;22.90;58.80;;;;;;5034296;28;20031;-68
2022/08/19 02:45:10;;;;;;;17.73;7.68;;;22.90;58.90;;;;;;5041003;28;20033;-66
2022/08/19 02:47:35;;;;;;;16.60;8.82;;;22.90;58.70;;;;;;5042314;28;20083;-69
2022/08/19 02:50:03;;;;;;;10.02;4.70;;;23.00;58.90;;;;;;5031983;28;20417;-68
2022/08/19 02:52:31;;;;;;;4.75;3.08;;;23.00;58.80;;;;;;5032061;28;20024;-69
2022/08/19 02:54:57;;;;;;;17.95;10.00;;;23.00;58.70;;;;;;5032040;28;20029;-67
2022/08/19 02:57:23;;;;;;;10.38;5.28;;;23.00;58.50;;;;;;5031737;28;20021;-68
2022/08/19 02:59:49;;;;;;;11.88;6.07;;;23.00;58.90;;;;;;5031934;28;20478;-69
2022/08/19 03:02:15;;;;;;;14.38;9.15;;;23.00;59.10;;;;;;5031937;28;20040;-68
2022/08/19 03:04:41;;;;;;;19.52;9.18;;;23.00;59.10;;;;;;5030767;28;20025;-68
2022/08/19 03:07:08;;;;;;;7.05;4.82;;;23.00;59.10;;;;;;5031939;28;20071;-68
2022/08/19 03:09:37;;;;;;;6.07;3.72;;;23.00;58.80;;;;;;5014067;28;20026;-69
2022/08/19 03:12:04;;;;;;;10.40;3.40;;;23.00;58.80;;;;;;5031814;28;20026;-68
2022/08/19 03:14:33;;;;;;;10.68;4.75;;;23.00;58.90;;;;;;5031792;28;20025;-68
2022/08/19 03:16:59;;;;;;;10.85;4.93;;;23.00;59.10;;;;;;5031874;28;20021;-68
2022/08/19 03:19:27;;;;;;;11.27;4.20;;;23.00;59.10;;;;;;5031842;28;20168;-68
2022/08/19 03:21:53;;;;;;;7.88;3.55;;;22.90;59.20;;;;;;5030536;28;20052;-68
2022/08/19 03:24:19;;;;;;;7.85;2.90;;;22.90;59.10;;;;;;5031861;28;20032;-67
2022/08/19 03:26:50;;;;;;;6.80;3.65;;;22.90;59.00;;;;;;5032110;28;20022;-69
2022/08/19 03:29:17;;;;;;;6.28;3.45;;;22.90;59.20;;;;;;5032349;28;20030;-67
2022/08/19 03:31:44;;;;;;;8.00;3.13;;;22.90;59.30;;;;;;5013883;28;20387;-69
2022/08/19 03:34:30;;;;;;;5.63;3.00;;;22.90;59.30;;;;;;5031651;28;20032;-68
2022/08/19 03:37:04;;;;;;;5.32;3.10;;;22.90;59.20;;;;;;5031643;28;20028;-69
2022/08/19 03:39:30;;;;;;;9.63;2.90;;;22.90;59.10;;;;;;5030344;28;20025;-68
2022/08/19 03:42:02;;;;;;;6.05;2.75;;;22.90;59.10;;;;;;5030275;28;20356;-67
2022/08/19 03:44:29;;;;;;;12.68;3.13;;;22.90;59.20;;;;;;5031546;28;20049;-69
2022/08/19 03:46:57;;;;;;;6.60;3.10;;;22.80;59.10;;;;;;5031333;28;20026;-69
2022/08/19 03:49:26;;;;;;;6.07;3.35;;;22.80;59.20;;;;;;5031532;28;20026;-68
2022/08/19 03:51:53;;;;;;;7.88;3.42;;;22.80;59.30;;;;;;5030350;28;20079;-69
2022/08/19 03:54:22;;;;;;;4.32;2.72;;;22.80;59.80;;;;;;5047240;28;20039;-67
2022/08/19 03:56:49;;;;;;;8.20;3.13;;;22.70;59.80;;;;;;5039293;28;20017;-69
2022/08/19 03:59:24;;;;;;;5.97;2.90;;;22.80;60.80;;;;;;5046657;28;20044;-68
2022/08/19 04:01:50;;;;;;;4.50;2.45;;;22.70;60.20;;;;;;5030864;28;20080;-68
2022/08/19 04:04:16;;;;;;;6.03;2.63;;;22.80;60.40;;;;;;5013415;28;20433;-68
2022/08/19 04:06:43;;;;;;;5.78;2.80;;;22.80;60.40;;;;;;5013402;28;20075;-69
2022/08/19 04:09:10;;;;;;;5.30;3.03;;;22.90;60.60;;;;;;5036984;28;20386;-68
2022/08/19 04:11:42;;;;;;;7.72;3.30;;;22.90;60.80;;;;;;5052002;28;20025;-68
2022/08/19 04:14:09;;;;;;;6.72;3.25;;;22.90;60.80;;;;;;5015698;28;20033;-69
2022/08/19 04:16:35;;;;;;;5.78;3.35;;;22.90;60.70;;;;;;5047926;28;20033;-68
2022/08/19 04:19:04;;;;;;;6.20;3.22;;;23.00;60.60;;;;;;5054470;28;20026;-68
2022/08/19 04:21:30;;;;;;;4.32;3.25;;;23.00;60.50;;;;;;5054435;28;20414;-67
2022/08/19 04:23:56;;;;;;;9.23;4.22;;;23.00;60.30;;;;;;5054756;28;20029;-67
2022/08/19 04:26:31;;;;;;;6.68;3.58;;;23.00;60.50;;;;;;5036744;28;20032;-69
2022/08/19 04:28:58;;;;;;;8.05;3.33;;;23.00;60.20;;;;;;5048630;28;20026;-69
2022/08/19 04:31:29;;;;;;;10.07;3.90;;;23.10;60.30;;;;;;5034536;28;20033;-68
2022/08/19 04:34:01;;;;;;;9.73;3.47;;;23.10;60.20;;;;;;5036450;28;20386;-68
2022/08/19 04:36:30;;;;;;;7.22;3.47;;;23.20;60.20;;;;;;5014330;28;20104;-68
2022/08/19 04:38:59;;;;;;;5.03;3.65;;;23.20;60.10;;;;;;5034746;28;20051;-68
2022/08/19 04:44:10;;;;;;;8.15;4.15;;;23.40;60.00;;;;;;5054577;28;20401;-68
2022/08/19 04:46:36;;;;;;;8.68;4.47;;;23.40;59.80;;;;;;5045860;28;20045;-68
2022/08/19 04:49:04;;;;;;;7.68;4.50;;;23.40;59.70;;;;;;5034559;28;20546;-67
2022/08/19 04:51:32;;;;;;;7.07;4.38;;;23.50;59.70;;;;;;5016502;28;20040;-69
2022/08/19 04:53:59;;;;;;;7.63;5.55;;;23.60;59.60;;;;;;5045288;28;20035;-70
2022/08/19 04:56:26;;;;;;;13.25;5.53;;;23.60;59.60;;;;;;5054270;28;20023;-70
2022/08/19 04:58:54;;;;;;;8.82;5.75;;;23.70;59.50;;;;;;5041318;28;20108;-68
2022/08/19 05:01:28;;;;;;;7.00;5.00;;;23.70;59.30;;;;;;5034317;28;20030;-69
2022/08/19 05:03:54;;;;;;;;;;;23.80;59.20;;;;;;5032762;28;20033;-68
2022/08/19 05:06:21;;;;;;;7.13;5.75;;;23.90;59.00;;;;;;5034342;28;20076;-68
2022/08/19 05:08:47;;;;;;;11.15;4.85;;;24.00;58.90;;;;;;5034055;28;20414;-69
2022/08/19 05:11:17;;;;;;;6.97;5.18;;;24.00;58.90;;;;;;5016304;28;20387;-69
2022/08/19 05:13:44;;;;;;;6.38;4.70;;;24.00;58.80;;;;;;5034159;28;20374;-68
2022/08/19 05:16:12;;;;;;;8.50;4.85;;;24.00;58.80;;;;;;5035390;28;20014;-69
2022/08/19 05:24:10;;;;;;;12.25;6.57;;;24.10;59.50;;;;;;5033527;28;20048;-69
2022/08/19 05:26:38;;;;;;;13.18;6.22;;;24.10;59.80;;;;;;5033344;28;20072;-69
2022/08/19 05:29:04;;;;;;;11.75;7.00;;;24.00;59.90;;;;;;5033516;28;20049;-69
2022/08/19 05:31:31;;;;;;;8.63;6.65;;;24.00;60.00;;;;;;5033496;28;20047;-68
2022/08/19 05:33:58;;;;;;;13.52;7.30;;;24.00;60.10;;;;;;5032889;28;20017;-68
2022/08/19 05:36:28;;;;;;;10.15;6.68;;;24.00;60.10;;;;;;5029255;28;20022;-72
2022/08/19 05:38:55;;;;;;;9.95;7.18;;;24.00;60.30;;;;;;5032837;28;20109;-69
2022/08/19 05:41:30;;;;;;;11.30;7.78;;;23.90;60.50;;;;;;5033041;28;20087;-69
2022/08/19 05:43:57;;;;;;;10.43;7.10;;;23.90;60.50;;;;;;5033093;28;20080;-67
2022/08/19 05:46:24;;;;;;;13.07;8.23;;;23.90;60.70;;;;;;5016604;28;20430;-70
2022/08/19 05:48:50;;;;;;;10.85;7.88;;;23.90;61.00;;;;;;5014786;28;20045;-68
2022/08/19 05:51:16;;;;;;;10.85;7.70;;;23.90;61.10;;;;;;5013170;28;20025;-68
2022/08/19 05:53:45;;;;;;;13.95;7.95;;;23.90;61.30;;;;;;5033905;28;20029;-69
2022/08/19 05:56:15;;;;;;;13.50;8.45;;;23.80;61.30;;;;;;5032714;28;20032;-70
2022/08/19 05:58:42;;;;;;;15.23;8.20;;;23.80;61.60;;;;;;5033999;28;20070;-68
2022/08/19 06:01:13;;;;;;;13.63;8.15;;;23.80;61.80;;;;;;5033302;28;20033;-67
2022/08/19 06:03:39;;;;;;;11.85;8.25;;;23.80;62.20;;;;;;5034941;28;20037;-68
2022/08/19 06:06:08;;;;;;;12.88;8.52;;;23.80;62.30;;;;;;5033343;28;20056;-67
2022/08/19 06:08:36;;;;;;;11.52;8.73;;;23.90;63.00;;;;;;5032258;28;20022;-67
2022/08/19 06:11:14;;;;;;;15.18;9.50;;;23.90;62.80;;;;;;5040809;28;20031;-69
2022/08/19 06:13:40;;;;;;;13.30;10.57;;;23.90;62.70;;;;;;5024964;28;20030;-67
2022/08/19 06:16:06;;;;;;;15.95;10.82;;;24.00;63.10;;;;;;5039695;28;20025;-67
2022/08/19 06:18:33;;;;;;;13.32;9.07;;;24.00;63.20;;;;;;5053199;28;20021;-68
2022/08/19 06:20:59;;;;;;;17.15;10.00;;;24.10;63.00;;;;;;5053334;28;20049;-69
2022/08/19 06:23:25;;;;;;;16.75;10.77;;;24.20;63.20;;;;;;5032350;28;20039;-67
2022/08/19 06:25:51;;;;;;;16.38;10.18;;;24.30;63.50;;;;;;5032965;28;20025;-69
2022/08/19 06:28:16;;;;;;;16.00;10.50;;;24.40;63.10;;;;;;5045856;28;20029;-69
2022/08/19 06:30:42;;;;;;;15.18;9.85;;;24.60;63.20;;;;;;5035327;28;20064;-69
2022/08/19 06:33:08;;;;;;;16.40;9.43;;;24.70;63.10;;;;;;5052742;28;20047;-68
2022/08/19 06:35:41;;;;;;;11.35;10.15;;;24.90;62.70;;;;;;5053319;28;20060;-67
2022/08/19 06:38:09;;;;;;;12.18;9.82;;;25.00;62.40;;;;;;5053413;28;20017;-69
2022/08/19 06:40:36;;;;;;;13.65;9.70;;;25.20;62.00;;;;;;5045595;28;20033;-68
2022/08/19 06:43:02;;;;;;;14.32;10.55;;;25.30;61.70;;;;;;5033252;28;20025;-69
2022/08/19 06:45:28;;;;;;;15.77;9.98;;;25.50;61.10;;;;;;5015489;28;20406;-68
2022/08/19 06:47:55;;;;;;;13.23;9.27;;;25.60;60.70;;;;;;5033003;28;20041;-70
2022/08/19 06:50:24;;;;;;;17.70;10.45;;;25.70;60.30;;;;;;5033052;28;20032;-69
2022/08/19 06:52:50;;;;;;;12.75;9.05;;;25.80;59.10;;;;;;5033015;28;20482;-67
2022/08/19 06:55:17;;;;;;;16.15;9.57;;;26.00;59.00;;;;;;5031366;28;20025;-69
2022/08/19 06:57:45;;;;;;;15.25;9.93;;;26.10;58.50;;;;;;5030651;28;20059;-69
2022/08/19 07:00:14;;;;;;;18.70;10.85;;;26.10;57.80;;;;;;5033057;28;20054;-67
2022/08/19 07:02:42;;;;;;;12.43;9.55;;;26.30;57.60;;;;;;5032984;28;20078;-68
2022/08/19 07:05:08;;;;;;;14.48;9.18;;;26.40;57.90;;;;;;5032946;28;20390;-67
2022/08/19 07:07:34;;;;;;;14.82;8.52;;;26.60;57.40;;;;;;5031689;28;20026;-69
2022/08/19 07:10:00;;;;;;;11.48;9.35;;;26.70;57.10;;;;;;5015128;28;20029;-68
2022/08/19 07:12:28;;;;;;;12.27;9.30;;;26.80;56.30;;;;;;5031583;28;20026;-69
2022/08/19 07:14:54;;;;;;;12.18;9.00;;;26.90;56.40;;;;;;5032733;28;20014;-68
2022/08/19 07:17:20;;;;;;;9.50;7.50;;;27.00;56.10;;;;;;5032696;28;20026;-68
2022/08/19 07:19:46;;;;;;;12.18;7.40;;;27.10;55.70;;;;;;5032816;28;20040;-69
2022/08/19 07:22:12;;;;;;;12.50;9.65;;;27.20;55.90;;;;;;5031239;28;20455;-68
2022/08/19 07:24:38;;;;;;;13.25;9.52;;;27.30;55.50;;;;;;5032626;28;20098;-70
2022/08/19 07:27:06;;;;;;;15.23;8.02;;;27.30;55.20;;;;;;5032730;28;20442;-68
2022/08/19 07:29:34;;;;;;;10.55;7.45;;;27.40;55.20;;;;;;5031444;28;20093;-69
2022/08/19 07:32:01;;;;;;;12.20;9.32;;;27.50;55.20;;;;;;5032581;28;20026;-69
2022/08/19 07:34:29;;;;;;;12.38;7.90;;;27.60;55.20;;;;;;5032597;28;20093;-71
2022/08/19 07:36:57;;;;;;;12.65;9.63;;;27.70;55.00;;;;;;5032575;28;20368;-68
2022/08/19 07:39:26;;;;;;;14.48;8.80;;;27.80;55.20;;;;;;5032561;28;20084;-69
2022/08/19 07:41:54;;;;;;;12.82;8.57;;;27.90;54.90;;;;;;5014871;28;20025;-69
2022/08/19 07:44:20;;;;;;;9.30;7.05;;;28.00;54.80;;;;;;5032453;28;20033;-70
2022/08/19 07:46:50;;;;;;;13.23;8.02;;;28.10;54.30;;;;;;5036635;28;20030;-68
2022/08/19 07:49:19;;;;;;;14.73;9.15;;;28.20;54.10;;;;;;5036758;28;20029;-69
2022/08/19 07:51:54;;;;;;;12.75;9.48;;;28.40;54.20;;;;;;5036404;28;20056;-70
2022/08/19 07:54:22;;;;;;;14.10;10.90;;;28.50;54.00;;;;;;5018525;28;20471;-68
2022/08/19 07:56:49;;;;;;;10.52;8.63;;;28.60;53.40;;;;;;5036351;28;20052;-70
2022/08/19 07:59:17;;;;;;;9.93;8.40;;;28.70;53.50;;;;;;5036215;28;20396;-68
2022/08/19 08:01:44;;;;;;;15.15;10.68;;;28.80;53.60;;;;;;5035921;28;20022;-70
2022/08/19 08:09:41;;;;;;;14.57;12.70;;;29.00;52.80;;;;;;5036354;28;20095;-70
2022/08/19 08:12:19;;;;;;;12.98;9.32;;;29.10;51.50;;;;;;5018380;28;20364;-71
2022/08/19 08:14:50;;;;;;;11.48;10.27;;;29.20;51.50;;;;;;5036034;28;20526;-71
2022/08/19 08:17:19;;;;;;;14.73;9.73;;;29.20;51.20;;;;;;5036129;28;20043;-68
2022/08/19 08:19:45;;;;;;;11.45;8.77;;;29.20;51.30;;;;;;5029259;28;20025;-68
2022/08/19 08:25:13;;;;;;;15.70;10.90;;;29.40;50.70;;;;;;5036170;28;20040;-68
2022/08/19 08:27:41;;;;;;;16.95;10.55;;;29.40;50.70;;;;;;5034558;28;20367;-68
2022/08/19 08:30:09;;;;;;;13.00;10.88;;;29.50;50.40;;;;;;5016817;28;20033;-70
2022/08/19 08:32:37;;;;;;;11.63;10.23;;;29.50;50.50;;;;;;5034500;28;20087;-71
2022/08/19 08:35:05;;;;;;;11.10;9.20;;;29.50;49.60;;;;;;5035615;28;20028;-68
2022/08/19 08:37:31;;;;;;;14.40;10.32;;;29.60;50.00;;;;;;5035678;28;20076;-68
2022/08/19 08:39:56;;;;;;;12.40;11.00;;;29.60;50.40;;;;;;5035562;28;20029;-70
2022/08/19 08:42:31;;;;;;;13.27;10.30;;;29.70;50.20;;;;;;5035527;28;20097;-71
2022/08/19 08:45:03;;;;;;;15.93;12.50;;;29.80;50.40;;;;;;5015795;28;20034;-70
2022/08/19 08:47:34;;;;;;;19.13;12.55;;;30.00;50.00;;;;;;5033128;28;20036;-69
2022/08/19 08:50:14;;;;;;;17.25;12.23;;;30.20;49.60;;;;;;5034030;28;20030;-72
2022/08/19 08:52:45;;;;;;;13.07;11.68;;;30.30;49.30;;;;;;5035228;28;20033;-71
2022/08/19 08:55:19;;;;;;;15.63;12.73;;;30.40;49.10;;;;;;5034642;28;20025;-70
2022/08/19 08:57:48;;;;;;;;;;;30.50;48.40;;;;;;5035617;28;20021;-69
2022/08/19 09:00:20;;;;;;;16.00;12.43;;;30.50;49.50;;;;;;5033729;28;19916;-69
2022/08/19 09:02:47;;;;;;;19.90;13.70;;;30.40;47.80;;;;;;5033679;28;20021;-70
2022/08/19 09:05:13;;;;;;;25.52;13.98;;;30.30;47.30;;;;;;5034794;28;20471;-68
2022/08/19 09:07:48;;;;;;;14.13;11.90;;;30.20;47.50;;;;;;5034831;28;20030;-69
2022/08/19 09:10:46;;;;;;;14.27;10.95;;;30.00;47.90;;;;;;5034922;28;20026;-70
2022/08/19 09:13:20;;;;;;;16.98;11.98;;;29.80;48.40;;;;;;5034904;28;20416;-70
2022/08/19 09:16:01;;;;;;;17.00;12.10;;;29.80;48.20;;;;;;5016173;28;20041;-68
2022/08/19 09:18:41;;;;;;;17.20;12.02;;;29.60;48.40;;;;;;5034568;28;20024;-69
2022/08/19 09:21:08;;;;;;;14.43;11.20;;;29.50;48.60;;;;;;5034640;28;20060;-68
2022/08/19 09:23:36;;;;;;;16.30;10.75;;;29.50;48.60;;;;;;5033500;28;20030;-69
2022/08/19 09:26:08;;;;;;;13.40;11.82;;;29.40;48.50;;;;;;5034674;28;20517;-67
2022/08/19 09:28:34;;;;;;;15.18;12.70;;;29.30;48.80;;;;;;5032314;28;20091;-69
2022/08/19 09:31:00;;;;;;;14.35;12.00;;;29.30;48.60;;;;;;5033247;28;20064;-71
2022/08/19 09:33:26;;;;;;;13.68;10.55;;;29.20;48.60;;;;;;5034526;28;20044;-69
2022/08/19 09:36:06;;;;;;;17.05;11.63;;;29.20;48.80;;;;;;5015769;28;20029;-70
2022/08/19 09:38:33;;;;;;;13.13;11.05;;;29.20;48.80;;;;;;5032655;28;20030;-69
2022/08/19 09:41:07;;;;;;;18.83;12.98;;;29.20;48.90;;;;;;5034482;28;20582;-68
2022/08/19 09:43:36;;;;;;;18.50;14.55;;;29.20;48.80;;;;;;5034356;28;20048;-68
2022/08/19 09:46:05;;;;;;;18.00;14.43;;;29.20;48.80;;;;;;5034271;28;20029;-68
2022/08/19 09:48:31;;;;;;;15.82;13.30;;;29.20;48.90;;;;;;5034237;28;20033;-68
2022/08/19 09:51:07;;;;;;;18.77;14.38;;;29.20;48.70;;;;;;5016186;28;20021;-69
2022/08/19 09:53:35;;;;;;;16.98;12.88;;;29.30;48.80;;;;;;5033985;28;20025;-68
2022/08/19 09:56:02;;;;;;;20.25;14.20;;;29.40;48.60;;;;;;5034003;28;20022;-69
2022/08/19 09:58:29;;;;;;;15.02;12.25;;;29.50;48.30;;;;;;5034104;28;20168;-69
2022/08/19 10:00:59;;;;;;;15.00;13.15;;;29.50;48.40;;;;;;5033832;28;20486;-70
2022/08/19 10:03:27;;;;;;;20.55;16.63;;;29.50;48.00;;;;;;5016217;28;20029;-69
2022/08/19 10:05:54;;;;;;;17.23;13.98;;;29.60;47.90;;;;;;5033815;28;20065;-70
2022/08/19 10:08:23;;;;;;;15.70;13.25;;;29.60;47.80;;;;;;5033132;28;20025;-68
2022/08/19 10:10:50;;;;;;;20.45;15.90;;;29.60;47.80;;;;;;5033805;28;20463;-68
2022/08/19 10:13:21;;;;;;;18.33;13.52;;;29.70;47.60;;;;;;5033761;28;20021;-68
2022/08/19 10:15:50;;;;;;;14.07;12.30;;;29.70;47.70;;;;;;5035497;28;20017;-69
2022/08/19 10:18:19;;;;;;;16.90;13.35;;;29.80;47.40;;;;;;5053170;28;20033;-70
2022/08/19 10:20:50;;;;;;;14.52;11.15;;;29.80;47.30;;;;;;5053262;28;20094;-68
2022/08/19 10:23:17;;;;;;;16.88;12.43;;;29.70;47.50;;;;;;5053520;28;20032;-68
2022/08/19 10:25:43;;;;;;;14.50;12.30;;;29.70;47.30;;;;;;5053482;28;20452;-68
2022/08/19 10:28:12;;;;;;;14.48;11.13;;;29.70;47.30;;;;;;5053368;28;20033;-68
2022/08/19 10:30:39;;;;;;;14.20;10.25;;;29.70;47.50;;;;;;5053316;28;20403;-70
2022/08/19 10:33:05;;;;;;;14.32;11.80;;;29.80;47.60;;;;;;5053179;28;20028;-67
2022/08/19 10:35:32;;;;;;;14.30;10.85;;;29.90;47.40;;;;;;5052989;28;20105;-68
2022/08/19 10:38:02;;;;;;;16.55;11.48;;;29.90;46.40;;;;;;5052955;28;20029;-69
2022/08/19 10:40:28;;;;;;;13.40;10.93;;;29.90;46.00;;;;;;5052907;28;20029;-68
2022/08/19 10:42:55;;;;;;;10.82;9.13;;;29.90;46.00;;;;;;5052919;28;20382;-68
2022/08/19 10:45:24;;;;;;;11.32;10.02;;;30.00;46.30;;;;;;5052993;28;20032;-68
2022/08/19 10:47:50;;;;;;;16.60;9.95;;;29.90;46.00;;;;;;5034070;28;20364;-69
2022/08/19 10:53:08;;;;;;;10.65;9.55;;;29.90;45.90;;;;;;5033026;28;20064;-69
2022/08/19 10:58:22;;;;;;;10.85;9.00;;;29.80;46.30;;;;;;5032862;28;20076;-68
2022/08/19 11:00:58;;;;;;;11.20;9.43;;;29.90;46.40;;;;;;5032451;28;20048;-68
2022/08/19 11:03:27;;;;;;;11.35;9.88;;;29.90;46.40;;;;;;5032724;28;20112;-69
2022/08/19 11:06:08;;;;;;;10.57;8.43;;;29.90;46.10;;;;;;5032747;28;20025;-68
2022/08/19 11:08:37;;;;;;;10.68;8.88;;;30.00;46.00;;;;;;5032806;28;20108;-69
2022/08/19 11:11:04;;;;;;;9.80;8.80;;;30.10;46.20;;;;;;5032617;28;20021;-68
2022/08/19 11:13:33;;;;;;;12.45;9.77;;;30.20;45.90;;;;;;5032812;28;20060;-69
2022/08/19 11:16:19;;;;;;;9.48;8.15;;;30.30;45.80;;;;;;5034406;28;20452;-69
2022/08/19 11:18:48;;;;;;;9.43;8.20;;;30.40;45.40;;;;;;5051823;28;20125;-70
2022/08/19 11:21:24;;;;;;;14.88;9.02;;;30.60;45.90;;;;;;5052179;28;20045;-69
2022/08/19 11:23:52;;;;;;;13.70;9.25;;;30.80;45.80;;;;;;5052527;28;20025;-70
2022/08/19 11:26:19;;;;;;;9.95;8.75;;;30.90;44.60;;;;;;5052431;28;20094;-69
2022/08/19 11:28:45;;;;;;;13.40;10.27;;;31.10;44.40;;;;;;5050898;28;20107;-69
2022/08/19 11:31:18;;;;;;;11.55;9.45;;;31.20;43.80;;;;;;5034291;28;20447;-70
2022/08/19 11:33:44;;;;;;;12.20;9.40;;;31.30;43.60;;;;;;5052303;28;20021;-69
2022/08/19 11:36:10;;;;;;;9.50;8.52;;;31.40;43.10;;;;;;5052124;28;20028;-70
2022/08/19 11:38:37;;;;;;;13.55;8.75;;;31.40;43.00;;;;;;5052393;28;20044;-70
2022/08/19 11:41:07;;;;;;;9.82;8.77;;;31.30;43.00;;;;;;5052485;28;20390;-69
2022/08/19 11:43:33;;;;;;;10.23;8.48;;;31.30;43.50;;;;;;5052315;28;20032;-70
2022/08/19 11:46:03;;;;;;;9.63;8.50;;;31.30;43.10;;;;;;5031343;28;20756;-69
2022/08/19 11:48:29;;;;;;;9.82;8.82;;;31.30;43.10;;;;;;5032274;28;20108;-69
2022/08/19 11:50:57;;;;;;;14.02;8.90;;;31.40;43.20;;;;;;5032256;28;20108;-68
2022/08/19 11:53:24;;;;;;;9.00;8.13;;;31.50;42.80;;;;;;5032382;28;20021;-69
2022/08/19 11:55:55;;;;;;;14.30;8.30;;;31.70;42.70;;;;;;5031064;28;20026;-69
2022/08/19 11:58:22;;;;;;;9.15;8.25;;;31.90;42.50;;;;;;5032491;28;20422;-69
2022/08/19 12:00:47;;;;;;;9.80;8.10;;;32.10;42.50;;;;;;5032183;28;20029;-69
2022/08/19 12:03:14;;;;;;;10.80;8.13;;;32.30;41.70;;;;;;5032403;28;20036;-69
2022/08/19 12:05:40;;;;;;;9.10;8.18;;;32.40;40.90;;;;;;5032438;28;20096;-69
2022/08/19 12:08:07;;;;;;;9.77;8.40;;;32.60;40.60;;;;;;5014847;28;20026;-69
2022/08/19 12:10:34;;;;;;;11.25;8.65;;;32.60;40.20;;;;;;5014698;28;20434;-69
2022/08/19 12:13:00;;;;;;;14.70;9.13;;;32.60;39.80;;;;;;5032389;28;20018;-69
2022/08/19 12:15:28;;;;;;;10.65;9.38;;;32.70;39.90;;;;;;5032491;28;20021;-70
2022/08/19 12:17:56;;;;;;;10.82;9.38;;;32.70;39.20;;;;;;5050054;28;20017;-69
2022/08/19 12:20:23;;;;;;;12.07;9.68;;;32.80;39.10;;;;;;5034157;28;20021;-69
2022/08/19 12:22:50;;;;;;;12.82;10.77;;;32.70;39.00;;;;;;5034438;28;20037;-69
2022/08/19 12:25:16;;;;;;;14.48;9.18;;;32.70;38.60;;;;;;5052257;28;20063;-69
2022/08/19 12:27:42;;;;;;;14.32;10.90;;;32.70;39.00;;;;;;5052239;28;20548;-69
2022/08/19 12:30:11;;;;;;;12.32;9.85;;;32.70;38.30;;;;;;5052926;28;20036;-69
2022/08/19 12:32:37;;;;;;;11.65;9.15;;;32.80;38.60;;;;;;5055674;28;20029;-69
2022/08/19 12:35:04;;;;;;;12.43;9.65;;;32.80;39.10;;;;;;5037889;28;20025;-69
2022/08/19 12:37:31;;;;;;;11.70;9.65;;;32.80;39.00;;;;;;5037866;28;20423;-70
2022/08/19 12:39:57;;;;;;;12.52;10.20;;;32.80;39.00;;;;;;5037751;28;20029;-70
2022/08/19 12:42:23;;;;;;;16.83;12.73;;;32.80;38.40;;;;;;5055564;28;20029;-69
2022/08/19 12:44:51;;;;;;;11.70;10.48;;;32.80;38.80;;;;;;5055580;28;20087;-69
2022/08/19 12:47:18;;;;;;;13.48;11.00;;;32.80;38.40;;;;;;5043836;28;20083;-69
2022/08/19 12:49:44;;;;;;;17.15;10.93;;;32.80;38.30;;;;;;5035450;28;20040;-69
2022/08/19 12:52:10;;;;;;;11.70;9.93;;;32.80;38.10;;;;;;5035573;28;20462;-70
2022/08/19 12:54:37;;;;;;;13.50;10.75;;;32.80;38.40;;;;;;5035354;28;20020;-68
2022/08/19 12:57:07;;;;;;;13.90;10.38;;;32.80;38.20;;;;;;5035397;28;20083;-68
2022/08/19 12:59:36;;;;;;;11.75;9.32;;;32.90;37.90;;;;;;5035505;28;20447;-69
2022/08/19 13:02:05;;;;;;;10.90;9.10;;;32.80;37.70;;;;;;5035387;28;20147;-69
2022/08/19 13:04:30;;;;;;;11.32;8.35;;;32.80;37.80;;;;;;5033940;28;20033;-69
2022/08/19 13:06:58;;;;;;;11.38;9.65;;;32.80;37.80;;;;;;5035394;28;20159;-69
2022/08/19 13:09:24;;;;;;;11.43;8.57;;;32.80;37.30;;;;;;5035464;28;20029;-69